Farewell, Alaska
Current Conditions -  °F | °C
As of 1:56 AM on Wednesday 26 Nov 2014 (Local Time) from PAFS Reporting Station
Overcast Overcast  
Wind Chill: 21°   Ceiling: 900
Heat Index: 21°   Visibility: 10mi
Dew Point: 17°   Wind: 0mph
Humidity: 85%   Direction: NA
Pressure: 30.4"   Gusts: NA
Location:  62.51°N, 153.89°W
Report Text: PAFS 261056Z AUTO 00000KT 10SM OVC009 M06/M08 A3040 RMK AO2 TSNO T10611083 SLP308 $
Loading
Personal Weather Stations






























Interactive Weather Map New forecast layout! Learn more

10-Day Weather Forecast

Advertisements
Track Severe Weather on mobile